createdAt,value
2018-07-06T00:01:24.295Z,100891.02
2018-07-06T00:04:04.086Z,100886.45
2018-07-06T00:06:43.744Z,100889.58
2018-07-06T00:09:23.571Z,100891.22
2018-07-06T00:12:03.320Z,100894.19
2018-07-06T00:14:43.164Z,100889.13
2018-07-06T00:17:22.831Z,100885.92
2018-07-06T00:20:02.637Z,100892.98
2018-07-06T00:22:42.299Z,100895.85
2018-07-06T00:25:22.067Z,100889.39
2018-07-06T00:28:01.774Z,100893.64
2018-07-06T00:30:41.366Z,100887.57
2018-07-06T00:33:21.051Z,100897.48
2018-07-06T00:36:01.388Z,100890.05
2018-07-06T00:38:41.085Z,100895.39
2018-07-06T00:41:20.879Z,100895.25
2018-07-06T00:44:00.659Z,100895.75
2018-07-06T00:46:40.448Z,100894.47
2018-07-06T00:49:20.327Z,100896.97
2018-07-06T00:52:00.053Z,100905.75
2018-07-06T00:54:39.896Z,100904.84
2018-07-06T00:57:20.121Z,100902.02
2018-07-06T00:59:59.994Z,100910.95
2018-07-06T01:02:39.783Z,100913.55
2018-07-06T01:05:19.532Z,100918.72
2018-07-06T01:07:59.199Z,100921.95
2018-07-06T01:10:38.872Z,100925.27
2018-07-06T01:13:18.770Z,100929.34
2018-07-06T01:15:58.363Z,100926.00
2018-07-06T01:18:38.137Z,100932.94
2018-07-06T01:21:17.839Z,100933.67
2018-07-06T01:23:57.600Z,100934.00
2018-07-06T01:26:37.427Z,100928.56
2018-07-06T01:29:17.210Z,100928.82
2018-07-06T01:31:57.044Z,100928.42
2018-07-06T01:34:36.782Z,100929.05
2018-07-06T01:37:16.571Z,100932.14
2018-07-06T01:39:56.296Z,100939.44
2018-07-06T01:42:36.131Z,100943.02
2018-07-06T01:45:15.867Z,100945.11
2018-07-06T01:47:55.643Z,100946.83
2018-07-06T01:50:35.438Z,100944.19
2018-07-06T01:53:15.391Z,100949.19
2018-07-06T01:56:01.104Z,100949.77
2018-07-06T01:58:40.988Z,100945.82
2018-07-06T02:01:20.565Z,100937.30
2018-07-06T02:04:00.311Z,100946.53
2018-07-06T02:06:39.974Z,100950.83
2018-07-06T02:09:19.812Z,100956.49
2018-07-06T02:11:59.555Z,100953.48
2018-07-06T02:14:39.324Z,100949.03
2018-07-06T02:17:19.116Z,100957.41
2018-07-06T02:19:58.827Z,100952.30
2018-07-06T02:22:38.632Z,100945.58
2018-07-06T02:25:18.316Z,100950.39
2018-07-06T02:27:58.023Z,100950.58
2018-07-06T02:30:37.826Z,100948.08
2018-07-06T02:33:17.655Z,100951.77
2018-07-06T02:35:57.361Z,100943.77
2018-07-06T02:38:37.031Z,100951.61
2018-07-06T02:41:16.771Z,100945.09
2018-07-06T02:43:56.474Z,100947.59
2018-07-06T02:46:36.277Z,100955.25
2018-07-06T02:49:16.022Z,100958.68
2018-07-06T02:51:55.651Z,100963.77
2018-07-06T02:54:35.411Z,100965.49
2018-07-06T02:57:15.061Z,100965.31
2018-07-06T02:59:54.735Z,100963.09
2018-07-06T03:02:34.541Z,100963.09
2018-07-06T03:05:14.395Z,100963.22
2018-07-06T03:07:54.071Z,100965.58
2018-07-06T03:10:33.672Z,100961.75
2018-07-06T03:13:13.332Z,100963.77
2018-07-06T03:15:53.123Z,100969.04
2018-07-06T03:18:32.943Z,100974.47
2018-07-06T03:21:12.732Z,100971.55
2018-07-06T03:23:52.532Z,100971.42
2018-07-06T03:26:32.388Z,100967.29
2018-07-06T03:29:12.138Z,100969.52
2018-07-06T03:31:51.900Z,100979.76
2018-07-06T03:34:31.598Z,100976.95
2018-07-06T03:37:11.375Z,100972.47
2018-07-06T03:39:51.093Z,100972.47
2018-07-06T03:42:30.939Z,100974.39
2018-07-06T03:45:10.687Z,100984.77
2018-07-06T03:47:50.467Z,100983.28
2018-07-06T03:50:30.260Z,100986.06
2018-07-06T03:53:10.041Z,100984.95
2018-07-06T03:55:49.868Z,100985.45
2018-07-06T03:58:29.656Z,100980.88
2018-07-06T04:01:09.553Z,100979.36
2018-07-06T04:03:49.156Z,100986.16
2018-07-06T04:06:28.783Z,100988.05
2018-07-06T04:09:08.632Z,100992.89
2018-07-06T04:11:48.237Z,100995.98
2018-07-06T04:14:28.036Z,100992.06
2018-07-06T04:17:07.784Z,100992.55
2018-07-06T04:19:47.531Z,100999.26
2018-07-06T04:22:27.330Z,101005.12
2018-07-06T04:25:06.977Z,101002.19
2018-07-06T04:27:46.770Z,100998.48
2018-07-06T04:30:26.601Z,100999.34
2018-07-06T04:33:06.482Z,101007.00
2018-07-06T04:35:46.191Z,101003.58
2018-07-06T04:38:26.006Z,101008.15
2018-07-06T04:41:05.887Z,101012.19
2018-07-06T04:43:45.670Z,101008.52
2018-07-06T04:46:25.244Z,101013.00
2018-07-06T04:49:05.028Z,101015.72
2018-07-06T04:51:44.734Z,101009.66
2018-07-06T04:54:24.687Z,101008.30
2018-07-06T04:57:04.262Z,101011.52
2018-07-06T04:59:44.040Z,101005.15
2018-07-06T05:02:23.679Z,101013.73
2018-07-06T05:05:03.462Z,101007.59
2018-07-06T05:07:44.074Z,101009.23
2018-07-06T05:10:23.905Z,101014.66
2018-07-06T05:13:03.616Z,101016.77
2018-07-06T05:15:43.363Z,101013.45
2018-07-06T05:18:23.267Z,101014.66
2018-07-06T05:21:02.972Z,101018.00
2018-07-06T05:23:42.694Z,101025.91
2018-07-06T05:26:22.287Z,101023.93
2018-07-06T05:29:01.763Z,101026.16
2018-07-06T05:31:41.524Z,101032.70
2018-07-06T05:34:21.375Z,101038.36
2018-07-06T05:37:01.132Z,101034.65
2018-07-06T05:39:41.141Z,101041.75
2018-07-06T05:42:20.843Z,101042.62
2018-07-06T05:45:00.499Z,101050.34
2018-07-06T05:47:40.224Z,101051.83
2018-07-06T05:50:19.947Z,101059.83
2018-07-06T05:52:59.656Z,101063.63
2018-07-06T05:55:39.337Z,101067.05
2018-07-06T05:58:19.132Z,101068.78
2018-07-06T06:00:58.964Z,101053.40
2018-07-06T06:03:38.740Z,101054.79
2018-07-06T06:06:18.520Z,101063.31
2018-07-06T06:08:45.796Z,101067.09
2018-07-06T06:11:14.143Z,101067.09
2018-07-06T06:13:42.524Z,101072.77
2018-07-06T06:16:10.836Z,101070.17
2018-07-06T06:18:39.593Z,101073.83
2018-07-06T06:21:08.300Z,101077.19
2018-07-06T06:23:36.680Z,101084.20
2018-07-06T06:26:05.121Z,101090.13
2018-07-06T06:28:33.676Z,101081.42
2018-07-06T06:31:02.629Z,101090.78
2018-07-06T06:33:31.190Z,101086.86
2018-07-06T06:35:59.541Z,101086.36
2018-07-06T06:38:27.925Z,101086.48
2018-07-06T06:40:56.431Z,101095.23
2018-07-06T06:43:24.831Z,101095.95
2018-07-06T06:45:53.357Z,101092.83
2018-07-06T06:48:21.905Z,101094.34
2018-07-06T06:50:50.844Z,101094.49
2018-07-06T06:53:19.453Z,101091.06
2018-07-06T06:55:47.957Z,101099.13
2018-07-06T06:58:16.380Z,101096.41
2018-07-06T07:00:44.759Z,101101.08
2018-07-06T07:03:13.143Z,101103.80
2018-07-06T07:05:41.522Z,101107.03
2018-07-06T07:08:09.964Z,101104.59
2018-07-06T07:10:38.348Z,101103.61
2018-07-06T07:13:06.762Z,101106.67
2018-07-06T07:15:35.139Z,101107.03
2018-07-06T07:18:03.572Z,101103.73
2018-07-06T07:20:32.538Z,101104.44
2018-07-06T07:23:00.923Z,101105.83
2018-07-06T07:25:29.780Z,101109.63
2018-07-06T07:27:58.161Z,101109.69
2018-07-06T07:30:26.505Z,101113.73
2018-07-06T07:32:54.903Z,101108.33
2018-07-06T07:35:23.860Z,101108.64
2018-07-06T10:58:01.918Z,101203.30
2018-07-06T11:00:30.260Z,101198.11
2018-07-06T11:02:58.623Z,101200.08
2018-07-06T11:05:27.003Z,101200.60
2018-07-06T11:07:55.332Z,101204.80
2018-07-06T11:10:23.648Z,101208.52
2018-07-06T11:12:51.986Z,101204.43
2018-07-06T11:15:20.328Z,101206.06
2018-07-06T11:17:48.684Z,101203.06
2018-07-06T11:20:17.095Z,101205.03
2018-07-06T11:22:45.444Z,101206.92
2018-07-06T11:25:13.787Z,101208.05
2018-07-06T11:27:42.123Z,101205.42
2018-07-06T11:30:10.504Z,101209.02
2018-07-06T11:32:38.842Z,101206.45
2018-07-06T11:35:07.327Z,101205.72
2018-07-06T11:37:35.827Z,101213.70
2018-07-06T11:40:04.190Z,101216.11
2018-07-06T11:42:32.567Z,101220.52
2018-07-06T11:45:00.994Z,101215.07
2018-07-06T11:47:29.286Z,101220.42
2018-07-06T11:49:57.625Z,101218.43
2018-07-06T11:52:25.952Z,101220.89
2018-07-06T11:54:54.365Z,101216.75
2018-07-06T11:57:22.739Z,101217.98
2018-07-06T11:59:51.172Z,101217.09
2018-07-06T12:02:19.520Z,101221.66
2018-07-06T12:04:47.860Z,101226.98
2018-07-06T12:07:16.211Z,101223.88
2018-07-06T12:09:44.532Z,101229.57
2018-07-06T12:12:12.863Z,101231.10
2018-07-06T12:14:41.188Z,101230.47
2018-07-06T12:17:09.536Z,101233.62
2018-07-06T12:19:37.856Z,101237.16
2018-07-06T12:22:06.228Z,101235.12
2018-07-06T12:24:34.573Z,101230.05
2018-07-06T12:27:02.904Z,101235.39
2018-07-06T12:29:31.252Z,101228.88
2018-07-06T12:31:59.664Z,101222.69
2018-07-06T12:34:27.985Z,101225.52
2018-07-06T12:36:56.606Z,101233.56
2018-07-06T12:39:24.947Z,101225.25
2018-07-06T12:41:53.282Z,101228.88
2018-07-06T12:44:21.618Z,101226.54
2018-07-06T12:46:49.951Z,101222.61
2018-07-06T12:49:18.291Z,101215.27
2018-07-06T12:51:46.624Z,101223.37
2018-07-06T12:54:15.150Z,101216.94
2018-07-06T12:56:43.489Z,101212.45
2018-07-06T12:59:11.819Z,101212.21
2018-07-06T13:05:31.965Z,101212.56
2018-07-06T13:08:00.304Z,101201.58
2018-07-06T13:10:28.737Z,101203.61
2018-07-06T13:12:57.036Z,101200.94
2018-07-06T13:15:25.384Z,101201.88
2018-07-06T13:17:53.717Z,101202.66
2018-07-06T13:20:22.069Z,101201.90
2018-07-06T13:22:50.412Z,101202.60
2018-07-06T13:25:18.748Z,101204.41
2018-07-06T13:27:47.064Z,101205.18
2018-07-06T13:30:15.442Z,101200.21
2018-07-06T13:32:43.827Z,101202.44
2018-07-06T13:35:12.238Z,101205.39
2018-07-06T13:37:40.617Z,101204.86
2018-07-06T13:40:09.000Z,101210.19
2018-07-06T13:42:37.371Z,101202.24
2018-07-06T13:45:06.197Z,101206.04
2018-07-06T13:47:34.666Z,101208.73
2018-07-06T13:50:03.128Z,101198.84
2018-07-06T13:52:31.571Z,101202.34
2018-07-06T13:54:59.943Z,101202.64
2018-07-06T13:57:28.307Z,101197.78
2018-07-06T13:59:56.712Z,101195.67
2018-07-06T14:02:25.088Z,101202.25
2018-07-06T14:04:53.453Z,101195.72
2018-07-06T14:07:21.884Z,101197.92
2018-07-06T14:09:50.329Z,101201.55
2018-07-06T14:12:18.845Z,101196.42
2018-07-06T14:14:47.629Z,101194.71
2018-07-06T14:17:16.024Z,101206.77
2018-07-06T14:19:44.428Z,101198.03
2018-07-06T14:22:13.482Z,101190.90
2018-07-06T14:24:42.347Z,101188.63
2018-07-06T14:27:11.367Z,101196.19
2018-07-06T14:29:39.819Z,101187.56
2018-07-06T14:32:08.258Z,101190.19
2018-07-06T14:34:36.698Z,101191.95
2018-07-06T14:37:05.049Z,101189.42
2018-07-06T14:39:33.985Z,101190.25
2018-07-06T14:42:02.399Z,101186.55
2018-07-06T14:44:31.472Z,101193.70
2018-07-06T14:47:00.031Z,101184.25
2018-07-06T14:49:28.380Z,101185.37
2018-07-06T14:51:57.765Z,101185.56
2018-07-06T14:54:26.515Z,101187.48
2018-07-06T14:56:54.967Z,101196.95
2018-07-06T14:59:23.441Z,101191.30
2018-07-06T15:01:51.774Z,101191.69
2018-07-06T15:04:20.116Z,101191.78
2018-07-06T15:06:48.579Z,101186.16
2018-07-06T15:09:16.899Z,101184.76
2018-07-06T15:11:45.375Z,101187.14
2018-07-06T15:14:13.752Z,101185.02
2018-07-06T15:16:42.069Z,101192.33
2018-07-06T15:19:10.419Z,101189.84
2018-07-06T15:21:38.817Z,101188.23
2018-07-06T15:24:07.319Z,101193.06
2018-07-06T15:26:35.703Z,101189.13
2018-07-06T15:29:04.547Z,101188.84
2018-07-06T15:31:32.989Z,101186.46
2018-07-06T15:34:01.399Z,101185.44
2018-07-06T15:36:29.731Z,101190.06
2018-07-06T15:38:58.096Z,101187.32
2018-07-06T15:41:26.436Z,101190.33
2018-07-06T15:43:54.769Z,101186.79
2018-07-06T15:46:23.129Z,101189.08
2018-07-06T15:48:51.467Z,101185.52
2018-07-06T15:51:19.812Z,101185.18
2018-07-06T15:53:48.148Z,101186.13
2018-07-06T15:56:16.457Z,101183.84
2018-07-06T15:58:44.818Z,101190.94
2018-07-06T16:01:13.167Z,101194.52
2018-07-06T16:03:41.491Z,101185.86
2018-07-06T16:06:09.850Z,101192.80
2018-07-06T16:08:38.195Z,101183.75
2018-07-06T16:11:06.534Z,101186.20
2018-07-06T16:13:34.852Z,101183.30
2018-07-06T16:16:03.261Z,101180.53
2018-07-06T16:18:31.610Z,101179.20
2018-07-06T16:20:59.955Z,101177.47
2018-07-06T16:23:28.295Z,101177.28
2018-07-06T16:25:56.672Z,101168.38
2018-07-06T16:28:25.019Z,101170.52
2018-07-06T16:30:53.372Z,101171.16
2018-07-06T16:33:21.711Z,101170.56
2018-07-06T16:35:50.054Z,101176.75
2018-07-06T16:38:18.376Z,101177.52
2018-07-06T16:40:46.712Z,101171.42
2018-07-06T16:43:15.028Z,101179.37
2018-07-06T16:45:43.471Z,101175.27
2018-07-06T16:48:11.807Z,101171.16
2018-07-06T16:50:40.256Z,101164.33
2018-07-06T16:53:08.592Z,101174.16
2018-07-06T16:55:36.912Z,101166.06
2018-07-06T16:58:05.264Z,101163.33
2018-07-06T17:00:33.629Z,101157.00
2018-07-06T17:03:01.962Z,101158.87
2018-07-06T17:05:30.403Z,101156.64
2018-07-06T17:07:58.804Z,101156.91
2018-07-06T17:10:27.134Z,101158.01
2018-07-06T17:12:55.459Z,101156.55
2018-07-06T17:15:23.789Z,101159.56
2018-07-06T17:17:52.141Z,101152.56
2018-07-06T17:20:20.495Z,101154.45
2018-07-06T17:22:48.835Z,101154.36
2018-07-06T17:25:17.176Z,101156.38
2018-07-06T17:27:45.583Z,101152.39
2018-07-06T17:30:13.929Z,101161.39
2018-07-06T17:32:42.267Z,101166.12
2018-07-06T17:35:10.589Z,101163.84
2018-07-06T17:37:39.166Z,101162.37
2018-07-06T17:40:07.508Z,101157.55
2018-07-06T17:42:35.851Z,101156.19
2018-07-06T17:45:04.249Z,101153.71
2018-07-06T17:47:32.582Z,101157.47
2018-07-06T17:50:00.930Z,101157.57
2018-07-06T17:52:29.255Z,101149.56
2018-07-06T17:54:57.600Z,101154.17
2018-07-06T17:57:25.961Z,101152.28
2018-07-06T17:59:54.360Z,101150.41
2018-07-06T18:02:22.772Z,101153.64
2018-07-06T18:04:51.190Z,101154.55
2018-07-06T18:07:19.628Z,101151.57
2018-07-06T18:09:47.959Z,101161.79
2018-07-06T18:12:16.273Z,101158.45
2018-07-06T18:14:44.682Z,101154.34
2018-07-06T18:17:13.874Z,101160.08
2018-07-06T18:19:42.230Z,101159.06
2018-07-06T18:22:10.571Z,101158.86
2018-07-06T18:24:38.899Z,101153.19
2018-07-06T18:27:07.249Z,101161.52
2018-07-06T18:29:35.639Z,101170.48
2018-07-06T18:32:03.976Z,101169.27
2018-07-06T18:34:32.328Z,101167.53
2018-07-06T18:37:00.670Z,101168.43
2018-07-06T18:39:29.143Z,101169.33
2018-07-06T18:41:57.526Z,101169.58
2018-07-06T18:44:25.864Z,101174.29
2018-07-06T18:46:54.209Z,101173.81
2018-07-06T18:49:22.545Z,101174.31
2018-07-06T18:51:50.881Z,101183.73
2018-07-06T18:54:19.224Z,101182.25
2018-07-06T18:56:47.568Z,101188.48
2018-07-06T18:59:15.913Z,101181.65
2018-07-06T19:01:44.270Z,101191.73
2018-07-06T19:04:12.609Z,101196.07
2018-07-06T19:06:40.935Z,101198.92
2018-07-06T19:09:09.292Z,101204.38
2018-07-06T19:11:37.636Z,101205.63
2018-07-06T19:14:05.975Z,101213.70
2018-07-06T19:16:34.332Z,101216.31
2018-07-06T19:19:02.687Z,101217.92
2018-07-06T19:21:31.048Z,101222.98
2018-07-06T19:23:59.383Z,101227.95
2018-07-06T19:26:27.776Z,101227.95
2018-07-06T19:28:56.326Z,101237.02
2018-07-06T19:31:24.672Z,101236.61
2018-07-06T19:33:53.187Z,101242.44
2018-07-06T19:36:21.529Z,101243.17
2018-07-06T19:38:50.346Z,101251.69
2018-07-06T19:41:18.676Z,101250.92
2018-07-06T19:43:47.044Z,101248.20
2018-07-06T19:46:15.397Z,101253.38
2018-07-06T19:48:43.767Z,101266.38
2018-07-06T19:51:12.243Z,101265.28
2018-07-06T19:53:40.604Z,101272.92
2018-07-06T19:56:08.978Z,101275.88
2018-07-06T19:58:37.356Z,101278.36
2018-07-06T20:01:05.707Z,101284.77
2018-07-06T20:03:34.115Z,101286.44
2018-07-06T20:06:02.493Z,101292.73
2018-07-06T20:08:30.870Z,101303.64
2018-07-06T20:10:59.176Z,101297.81
2018-07-06T20:13:27.587Z,101300.02
2018-07-06T20:15:55.906Z,101307.55
2018-07-06T20:18:24.216Z,101312.45
2018-07-06T20:20:52.562Z,101309.98
2018-07-06T20:23:21.069Z,101314.23
2018-07-06T20:25:49.429Z,101324.79
2018-07-06T20:28:17.757Z,101334.38
2018-07-06T20:30:46.108Z,101337.79
2018-07-06T20:33:14.464Z,101340.79
2018-07-06T20:35:42.809Z,101342.79
2018-07-06T20:38:11.184Z,101347.05
2018-07-06T20:40:39.515Z,101349.36
2018-07-06T20:43:07.840Z,101354.16
2018-07-06T20:45:36.227Z,101350.77
2018-07-06T20:48:04.631Z,101354.91
2018-07-06T20:50:33.012Z,101354.04
2018-07-06T20:53:01.316Z,101354.88
2018-07-06T20:55:29.666Z,101359.91
2018-07-06T20:57:58.172Z,101353.28
2018-07-06T21:00:26.652Z,101361.81
2018-07-06T21:02:55.241Z,101363.20
2018-07-06T21:05:23.720Z,101360.86
2018-07-06T21:07:52.043Z,101369.80
2018-07-06T21:10:20.393Z,101370.88
2018-07-06T21:12:48.736Z,101370.01
2018-07-06T21:15:17.048Z,101373.51
2018-07-06T21:17:45.501Z,101378.54
2018-07-06T21:20:14.008Z,101375.42
2018-07-06T21:22:42.447Z,101381.14
2018-07-06T21:25:11.071Z,101380.82
2018-07-06T21:27:39.588Z,101383.36
2018-07-06T21:30:08.022Z,101392.77
2018-07-06T21:32:36.482Z,101393.55
2018-07-06T21:35:04.938Z,101402.21
2018-07-06T21:37:33.341Z,101403.96
2018-07-06T21:40:01.787Z,101399.37
2018-07-06T21:42:30.267Z,101401.23
2018-07-06T21:44:58.994Z,101400.53
2018-07-06T21:47:27.503Z,101407.67
2018-07-06T21:49:55.833Z,101404.77
2018-07-06T21:52:24.342Z,101411.98
2018-07-06T21:54:52.683Z,101407.50
2018-07-06T21:57:21.025Z,101411.38
2018-07-06T21:59:49.472Z,101417.13
2018-07-06T22:02:18.125Z,101412.19
2018-07-06T22:04:47.475Z,101415.06
2018-07-06T22:07:16.828Z,101412.18
2018-07-06T22:09:45.857Z,101407.92
2018-07-06T22:12:14.940Z,101411.21
2018-07-06T22:14:43.604Z,101417.44
2018-07-06T22:17:12.188Z,101418.03
2018-07-06T22:19:40.563Z,101419.39
2018-07-06T22:22:08.952Z,101423.16
2018-07-06T22:24:37.520Z,101422.17
2018-07-06T22:27:06.028Z,101425.17
2018-07-06T22:29:34.410Z,101424.98
2018-07-06T22:32:02.784Z,101423.25
2018-07-06T22:34:31.269Z,101422.00
2018-07-06T22:36:59.751Z,101426.63
2018-07-06T22:39:28.250Z,101424.20
2018-07-06T22:41:56.612Z,101429.82
2018-07-06T22:44:24.943Z,101427.21
2018-07-06T22:46:53.300Z,101427.11
2018-07-06T22:49:21.942Z,101428.25
2018-07-06T22:51:50.290Z,101431.88
2018-07-06T22:54:18.756Z,101434.02
2018-07-06T22:56:47.290Z,101434.77
2018-07-06T22:59:15.619Z,101434.05
2018-07-06T23:01:43.923Z,101436.00
2018-07-06T23:04:12.261Z,101436.84
2018-07-06T23:06:40.632Z,101432.13
2018-07-06T23:09:09.011Z,101430.16
2018-07-06T23:11:37.335Z,101427.95
2018-07-06T23:14:05.657Z,101435.40
2018-07-06T23:16:33.988Z,101439.74
2018-07-06T23:19:02.343Z,101440.09
2018-07-06T23:21:30.669Z,101446.07
2018-07-06T23:23:59.001Z,101446.30
2018-07-06T23:26:27.368Z,101443.84
2018-07-06T23:28:55.712Z,101450.86
2018-07-06T23:31:24.036Z,101450.80
2018-07-06T23:33:52.420Z,101450.10
2018-07-06T23:36:20.764Z,101447.71
2018-07-06T23:38:49.088Z,101457.19
2018-07-06T23:41:17.428Z,101451.02
2018-07-06T23:43:45.802Z,101455.08
2018-07-06T23:46:14.385Z,101458.83
2018-07-06T23:48:42.865Z,101459.20
2018-07-06T23:51:11.184Z,101465.48
2018-07-06T23:53:39.516Z,101464.44
2018-07-06T23:56:08.001Z,101456.00
2018-07-06T23:58:36.336Z,101458.39
